createdAt,value
2018-03-16T00:00:50.237Z,17.07
2018-03-16T00:03:19.169Z,16.63
2018-03-16T00:05:47.337Z,16.60
2018-03-16T00:08:15.519Z,13.33
2018-03-16T00:10:43.674Z,10.67
2018-03-16T00:13:11.829Z,12.63
2018-03-16T00:15:40.766Z,12.37
2018-03-16T00:18:08.927Z,12.00
2018-03-16T00:20:37.084Z,11.10
2018-03-16T00:23:05.242Z,7.73
2018-03-16T00:25:34.165Z,8.83
2018-03-16T00:28:02.350Z,9.63
2018-03-16T00:30:30.514Z,8.70
2018-03-16T00:32:58.679Z,7.30
2018-03-16T00:35:26.836Z,9.40
2018-03-16T00:37:55.762Z,10.50
2018-03-16T00:40:23.918Z,15.07
2018-03-16T00:42:52.083Z,10.00
2018-03-16T00:45:20.277Z,12.77
2018-03-16T00:47:48.448Z,13.63
2018-03-16T00:50:16.603Z,10.50
2018-03-16T00:52:44.790Z,11.30
2018-03-16T00:55:13.011Z,11.80
2018-03-16T00:57:41.942Z,12.03
2018-03-16T01:00:10.904Z,11.30
2018-03-16T01:02:39.834Z,10.83
2018-03-16T01:05:07.998Z,12.23
2018-03-16T01:07:36.933Z,9.77
2018-03-16T01:10:05.094Z,9.07
2018-03-16T01:12:33.253Z,12.57
2018-03-16T01:15:01.410Z,8.47
2018-03-16T01:17:30.370Z,8.87
2018-03-16T01:19:58.526Z,8.13
2018-03-16T01:22:26.698Z,10.60
2018-03-16T01:24:54.858Z,6.90
2018-03-16T01:27:23.020Z,9.50
2018-03-16T01:29:51.187Z,6.90
2018-03-16T01:32:19.344Z,7.10
2018-03-16T01:34:48.290Z,7.83
2018-03-16T01:37:16.470Z,6.57
2018-03-16T01:39:44.838Z,7.13
2018-03-16T01:42:13.001Z,6.23
2018-03-16T01:44:41.185Z,6.83
2018-03-16T01:47:09.335Z,7.00
2018-03-16T01:49:37.497Z,6.63
2018-03-16T01:52:06.430Z,6.87
2018-03-16T01:54:34.591Z,6.73
2018-03-16T01:57:02.770Z,7.97
2018-03-16T01:59:30.917Z,7.00
2018-03-16T02:01:59.076Z,5.03
2018-03-16T02:04:28.031Z,5.60
2018-03-16T02:06:56.210Z,9.97
2018-03-16T02:09:24.367Z,6.07
2018-03-16T02:11:52.523Z,9.40
2018-03-16T02:14:20.686Z,6.60
2018-03-16T02:16:48.842Z,8.53
2018-03-16T02:19:17.770Z,9.63
2018-03-16T02:21:45.957Z,10.00
2018-03-16T02:24:14.105Z,7.57
2018-03-16T02:26:42.270Z,10.63
2018-03-16T02:29:10.433Z,8.53
2018-03-16T02:31:39.363Z,8.70
2018-03-16T02:34:07.518Z,7.60
2018-03-16T02:36:35.676Z,7.37
2018-03-16T02:39:04.642Z,8.53
2018-03-16T02:41:33.564Z,9.50
2018-03-16T02:44:02.503Z,9.90
2018-03-16T02:46:30.652Z,9.20
2018-03-16T02:48:58.819Z,7.77
2018-03-16T02:51:26.982Z,8.47
2018-03-16T02:53:55.897Z,8.33
2018-03-16T02:56:24.046Z,7.57
2018-03-16T02:58:52.211Z,8.10
2018-03-16T03:01:21.133Z,8.90
2018-03-16T03:03:49.282Z,9.53
2018-03-16T03:06:18.215Z,6.60
2018-03-16T03:08:46.502Z,6.70
2018-03-16T03:11:14.655Z,7.83
2018-03-16T03:13:42.810Z,6.43
2018-03-16T03:16:10.966Z,7.63
2018-03-16T03:18:39.913Z,8.70
2018-03-16T03:21:08.058Z,6.90
2018-03-16T03:23:36.244Z,7.20
2018-03-16T03:26:04.398Z,8.93
2018-03-16T03:28:32.554Z,8.33
2018-03-16T03:31:01.502Z,6.20
2018-03-16T03:33:29.661Z,5.87
2018-03-16T03:35:57.810Z,7.43
2018-03-16T03:38:26.727Z,8.10
2018-03-16T03:40:54.911Z,6.53
2018-03-16T03:43:23.125Z,7.53
2018-03-16T03:45:51.313Z,7.00
2018-03-16T03:48:20.227Z,7.33
2018-03-16T03:50:48.388Z,7.50
2018-03-16T03:53:17.322Z,7.83
2018-03-16T03:55:45.493Z,8.40
2018-03-16T03:58:13.655Z,8.20
2018-03-16T04:00:41.812Z,6.90
2018-03-16T04:03:09.978Z,8.20
2018-03-16T04:05:38.902Z,8.87
2018-03-16T04:08:07.089Z,9.33
2018-03-16T04:10:35.243Z,6.53
2018-03-16T04:13:03.421Z,9.90
2018-03-16T04:15:31.569Z,8.20
2018-03-16T04:17:59.746Z,8.20
2018-03-16T04:20:27.907Z,14.00
2018-03-16T04:22:56.848Z,9.33
2018-03-16T04:25:25.018Z,6.93
2018-03-16T04:27:53.177Z,8.07
2018-03-16T04:30:21.344Z,9.20
2018-03-16T04:32:49.506Z,8.30
2018-03-16T04:35:17.688Z,7.40
2018-03-16T04:37:45.850Z,6.93
2018-03-16T04:40:14.762Z,6.83
2018-03-16T04:42:42.922Z,7.33
2018-03-16T04:45:11.848Z,12.47
2018-03-16T04:47:40.004Z,7.43
2018-03-16T04:50:08.162Z,9.90
2018-03-16T04:52:36.322Z,10.93
2018-03-16T04:55:05.273Z,7.73
2018-03-16T04:57:33.441Z,8.50
2018-03-16T05:00:01.603Z,8.13
2018-03-16T05:02:29.757Z,8.77
2018-03-16T05:04:57.919Z,10.33
2018-03-16T05:07:26.853Z,8.37
2018-03-16T05:09:55.007Z,9.93
2018-03-16T05:12:23.190Z,9.37
2018-03-16T05:14:51.356Z,14.47
2018-03-16T05:17:19.513Z,11.37
2018-03-16T05:19:48.446Z,10.80
2018-03-16T05:22:16.607Z,10.57
2018-03-16T05:24:44.762Z,10.40
2018-03-16T05:27:20.712Z,10.40
2018-03-16T05:29:48.898Z,9.17
2018-03-16T05:32:17.130Z,13.47
2018-03-16T05:34:46.054Z,9.30
2018-03-16T05:37:14.987Z,8.73
2018-03-16T05:39:43.187Z,11.83
2018-03-16T05:42:11.391Z,12.67
2018-03-16T05:44:40.316Z,9.80
2018-03-16T05:47:08.474Z,12.13
2018-03-16T05:49:36.654Z,11.10
2018-03-16T05:52:04.821Z,11.13
2018-03-16T05:54:32.987Z,10.37
2018-03-16T05:57:01.153Z,9.37
2018-03-16T05:59:30.085Z,9.47
2018-03-16T06:01:58.242Z,11.23
2018-03-16T06:04:26.400Z,13.90
2018-03-16T06:06:55.357Z,11.90
2018-03-16T06:09:23.525Z,10.03
2018-03-16T06:11:51.704Z,12.10
2018-03-16T06:14:19.866Z,14.13
2018-03-16T06:16:48.042Z,15.93
2018-03-16T06:19:16.207Z,11.57
2018-03-16T06:21:44.367Z,9.93
2018-03-16T06:24:12.526Z,11.47
2018-03-16T06:26:40.686Z,11.53
2018-03-16T06:29:08.865Z,10.37
2018-03-16T06:31:37.032Z,12.00
2018-03-16T06:34:05.973Z,12.50
2018-03-16T06:36:34.136Z,10.73
2018-03-16T06:39:02.320Z,10.30
2018-03-16T06:41:30.500Z,11.47
2018-03-16T06:43:58.665Z,14.30
2018-03-16T06:46:26.838Z,11.40
2018-03-16T06:48:55.004Z,10.03
2018-03-16T06:51:23.163Z,12.57
2018-03-16T06:53:51.322Z,11.87
2018-03-16T06:56:20.242Z,10.43
2018-03-16T06:58:48.411Z,11.03
2018-03-16T07:01:16.590Z,14.70
2018-03-16T07:03:44.752Z,11.80
2018-03-16T07:06:12.926Z,11.53
2018-03-16T07:08:41.082Z,13.10
2018-03-16T07:11:10.000Z,10.40
2018-03-16T07:13:38.158Z,15.47
2018-03-16T07:16:06.331Z,13.27
2018-03-16T07:18:34.507Z,14.00
2018-03-16T07:21:02.670Z,10.37
2018-03-16T07:23:31.607Z,13.70
2018-03-16T07:25:59.780Z,12.90
2018-03-16T07:28:27.951Z,17.33
2018-03-16T07:30:56.172Z,12.17
2018-03-16T07:33:24.307Z,12.03
2018-03-16T07:35:52.483Z,13.40
2018-03-16T07:38:20.656Z,23.53
2018-03-16T07:40:48.818Z,14.80
2018-03-16T07:43:17.017Z,12.20
2018-03-16T07:45:50.676Z,15.97
2018-03-16T07:48:18.849Z,15.80
2018-03-16T07:50:47.022Z,14.10
2018-03-16T07:53:15.202Z,13.83
2018-03-16T07:55:43.418Z,14.97
2018-03-16T07:58:11.568Z,11.50
2018-03-16T08:00:39.728Z,13.60
2018-03-16T08:03:07.894Z,11.23
2018-03-16T08:05:36.056Z,10.37
2018-03-16T08:08:04.987Z,9.60
2018-03-16T08:10:33.152Z,13.33
2018-03-16T08:13:01.316Z,14.07
2018-03-16T08:15:29.494Z,21.27
2018-03-16T08:17:57.652Z,11.63
2018-03-16T08:20:26.586Z,13.00
2018-03-16T08:22:54.754Z,8.87
2018-03-16T08:25:22.907Z,9.90
2018-03-16T08:27:51.069Z,11.30
2018-03-16T08:30:19.986Z,11.10
2018-03-16T08:32:48.161Z,11.63
2018-03-16T08:35:16.329Z,10.10
2018-03-16T08:37:44.481Z,10.60
2018-03-16T08:40:13.421Z,11.50
2018-03-16T08:42:41.593Z,12.20
2018-03-16T08:45:09.778Z,14.23
2018-03-16T08:47:37.941Z,12.20
2018-03-16T08:50:06.126Z,12.13
2018-03-16T08:52:34.339Z,11.67
2018-03-16T08:55:03.274Z,21.40
2018-03-16T08:57:31.442Z,17.50
2018-03-16T08:59:59.615Z,12.00
2018-03-16T09:02:27.786Z,12.10
2018-03-16T09:04:55.961Z,13.57
2018-03-16T09:07:24.142Z,10.83
2018-03-16T09:09:52.313Z,12.17
2018-03-16T09:12:20.727Z,14.43
2018-03-16T09:14:48.886Z,10.73
2018-03-16T09:17:17.046Z,11.00
2018-03-16T09:19:45.213Z,10.87
2018-03-16T09:22:13.423Z,10.93
2018-03-16T09:24:41.614Z,17.67
2018-03-16T09:27:09.774Z,10.80
2018-03-16T09:29:37.938Z,11.37
2018-03-16T09:32:06.101Z,11.07
2018-03-16T09:34:35.186Z,13.43
2018-03-16T09:37:03.827Z,10.37
2018-03-16T09:39:37.425Z,9.57
2018-03-16T09:42:06.363Z,8.93
2018-03-16T09:44:35.091Z,10.63
2018-03-16T09:47:03.640Z,11.53
2018-03-16T09:49:31.810Z,8.43
2018-03-16T09:51:59.966Z,8.47
2018-03-16T09:54:33.550Z,10.70
2018-03-16T09:57:05.249Z,9.07
2018-03-16T09:59:33.393Z,14.43
2018-03-16T10:02:02.009Z,6.70
2018-03-16T10:04:39.445Z,7.00
2018-03-16T10:07:07.846Z,6.83
2018-03-16T10:09:36.030Z,6.83
2018-03-16T10:12:04.260Z,7.47
2018-03-16T10:14:32.362Z,8.60
2018-03-16T10:17:01.295Z,7.03
2018-03-16T10:19:29.453Z,8.40
2018-03-16T10:21:57.630Z,12.10
2018-03-16T10:24:25.810Z,7.93
2018-03-16T10:26:53.972Z,8.27
2018-03-16T10:29:22.132Z,12.77
2018-03-16T10:31:51.060Z,7.93
2018-03-16T10:34:19.223Z,10.40
2018-03-16T10:36:47.378Z,8.67
2018-03-16T10:39:15.578Z,5.70
2018-03-16T10:41:43.734Z,9.70
2018-03-16T10:44:11.896Z,6.40
2018-03-16T10:46:40.830Z,6.10
2018-03-16T10:49:08.998Z,6.53
2018-03-16T10:51:37.175Z,6.20
2018-03-16T10:54:05.342Z,7.40
2018-03-16T10:56:33.516Z,7.03
2018-03-16T10:59:01.689Z,6.63
2018-03-16T11:01:35.410Z,6.20
2018-03-16T11:04:03.590Z,7.17
2018-03-16T11:06:34.726Z,7.10
2018-03-16T11:09:02.893Z,6.17
2018-03-16T11:11:31.108Z,13.73
2018-03-16T11:13:59.278Z,7.63
2018-03-16T11:16:27.455Z,5.67
2018-03-16T11:18:55.627Z,9.57
2018-03-16T11:21:24.586Z,6.63
2018-03-16T11:23:52.759Z,6.13
2018-03-16T11:26:20.934Z,7.27
2018-03-16T11:28:49.117Z,6.93
2018-03-16T11:31:17.287Z,7.80
2018-03-16T11:33:45.464Z,8.47
2018-03-16T11:36:13.634Z,7.97
2018-03-16T11:38:41.824Z,8.37
2018-03-16T11:41:10.006Z,9.30
2018-03-16T11:43:38.216Z,8.40
2018-03-16T11:46:07.149Z,8.03
2018-03-16T11:48:35.318Z,7.00
2018-03-16T11:51:03.498Z,6.97
2018-03-16T11:53:31.673Z,5.63
2018-03-16T11:55:59.854Z,5.67
2018-03-16T11:58:28.021Z,5.70
2018-03-16T12:00:56.195Z,6.90
2018-03-16T12:03:24.375Z,5.90
2018-03-16T12:05:52.575Z,5.90
2018-03-16T12:08:20.748Z,6.20
2018-03-16T12:10:48.959Z,7.00
2018-03-16T12:13:17.105Z,6.70
2018-03-16T12:15:45.278Z,6.03
2018-03-16T12:18:13.443Z,7.40
2018-03-16T12:20:41.613Z,8.10
2018-03-16T12:23:09.795Z,5.63
2018-03-16T12:25:38.722Z,5.67
2018-03-16T12:28:07.654Z,6.60
2018-03-16T12:30:35.835Z,6.30
2018-03-16T12:33:04.002Z,6.87
2018-03-16T12:35:32.175Z,6.83
2018-03-16T12:38:00.362Z,7.70
2018-03-16T12:40:28.541Z,6.50
2018-03-16T12:42:56.715Z,6.23
2018-03-16T12:45:24.882Z,6.27
2018-03-16T12:47:53.075Z,6.40
2018-03-16T12:50:21.238Z,7.67
2018-03-16T12:52:49.411Z,6.17
2018-03-16T12:55:17.582Z,8.57
2018-03-16T12:57:45.758Z,5.80
2018-03-16T13:00:13.955Z,6.57
2018-03-16T13:02:42.894Z,6.03
2018-03-16T13:05:11.082Z,5.00
2018-03-16T13:07:39.251Z,3.90
2018-03-16T13:10:07.409Z,3.40
2018-03-16T13:12:35.581Z,3.80
2018-03-16T13:15:03.752Z,3.50
2018-03-16T13:17:31.918Z,4.93
2018-03-16T13:20:00.864Z,3.67
2018-03-16T13:22:29.046Z,4.63
2018-03-16T13:24:57.214Z,5.37
2018-03-16T13:27:26.193Z,4.70
2018-03-16T13:29:54.344Z,4.37
2018-03-16T13:32:22.546Z,4.10
2018-03-16T13:34:50.713Z,3.53
2018-03-16T13:37:18.876Z,4.43
2018-03-16T13:39:47.043Z,4.10
2018-03-16T13:42:15.295Z,5.23
2018-03-16T13:44:44.227Z,5.30
2018-03-16T13:47:12.454Z,5.70
2018-03-16T13:49:40.677Z,5.50
2018-03-16T13:52:08.887Z,5.83
2018-03-16T13:54:37.059Z,7.87
2018-03-16T13:57:05.241Z,7.20
2018-03-16T13:59:34.168Z,7.47
2018-03-16T14:02:02.348Z,8.00
2018-03-16T14:04:30.523Z,6.47
2018-03-16T14:06:58.687Z,6.33
2018-03-16T14:09:27.630Z,5.40
2018-03-16T14:11:55.821Z,5.60
2018-03-16T14:14:23.985Z,8.20
2018-03-16T14:16:52.163Z,6.10
2018-03-16T14:19:20.331Z,5.70
2018-03-16T14:21:48.498Z,6.00
2018-03-16T14:24:16.667Z,7.80
2018-03-16T14:26:44.849Z,8.87
2018-03-16T14:29:13.020Z,6.10
2018-03-16T14:31:41.199Z,5.93
2018-03-16T14:34:09.386Z,7.97
2018-03-16T14:36:39.061Z,7.03
2018-03-16T14:39:08.794Z,6.70
2018-03-16T14:41:36.957Z,10.30
2018-03-16T14:44:05.142Z,5.70
2018-03-16T14:46:33.355Z,6.23
2018-03-16T14:49:02.296Z,6.57
2018-03-16T14:51:30.461Z,5.90
2018-03-16T14:53:58.640Z,6.10
2018-03-16T14:56:26.811Z,5.47
2018-03-16T14:58:55.001Z,5.33
2018-03-16T15:01:23.178Z,6.23
2018-03-16T15:03:51.348Z,7.40
2018-03-16T15:06:19.527Z,10.20
2018-03-16T15:08:47.698Z,6.37
2018-03-16T15:11:15.895Z,5.83
2018-03-16T15:13:44.061Z,5.90
2018-03-16T15:16:12.227Z,8.80
2018-03-16T15:18:41.162Z,5.60
2018-03-16T15:21:10.096Z,7.00
2018-03-16T15:23:38.307Z,6.23
2018-03-16T15:26:06.499Z,5.30
2018-03-16T15:28:35.435Z,5.37
2018-03-16T15:31:03.607Z,5.97
2018-03-16T15:33:31.783Z,5.20
2018-03-16T15:35:59.959Z,9.20
2018-03-16T15:38:28.155Z,5.77
2018-03-16T15:40:56.328Z,5.80
2018-03-16T15:43:24.492Z,5.07
2018-03-16T15:45:52.661Z,4.93
2018-03-16T15:48:20.846Z,6.47
2018-03-16T15:50:49.066Z,4.57
2018-03-16T15:53:17.201Z,6.70
2018-03-16T15:55:45.367Z,4.47
2018-03-16T15:58:13.540Z,4.80
2018-03-16T16:00:41.704Z,3.57
2018-03-16T16:03:09.872Z,4.30
2018-03-16T16:05:38.257Z,4.60
2018-03-16T16:08:06.433Z,4.53
2018-03-16T16:10:34.606Z,4.20
2018-03-16T16:13:02.769Z,4.30
2018-03-16T16:15:31.059Z,4.20
2018-03-16T16:17:59.236Z,4.80
2018-03-16T16:20:27.404Z,5.10
2018-03-16T16:22:55.577Z,6.50
2018-03-16T16:25:23.754Z,6.53
2018-03-16T16:27:51.939Z,5.80
2018-03-16T16:30:20.111Z,4.97
2018-03-16T16:32:48.289Z,10.30
2018-03-16T16:35:16.459Z,7.30
2018-03-16T16:37:44.638Z,6.90
2018-03-16T16:40:12.820Z,7.33
2018-03-16T16:42:40.995Z,7.07
2018-03-16T16:45:09.159Z,6.47
2018-03-16T16:47:37.336Z,5.53
2018-03-16T16:50:05.502Z,6.53
2018-03-16T16:52:33.675Z,6.13
2018-03-16T16:55:01.923Z,6.00
2018-03-16T16:57:30.038Z,5.60
2018-03-16T16:59:58.202Z,7.23
2018-03-16T17:02:26.375Z,7.37
2018-03-16T17:04:54.542Z,7.63
2018-03-16T17:07:22.732Z,7.90
2018-03-16T17:09:50.898Z,9.03
2018-03-16T17:12:19.069Z,11.33
2018-03-16T17:14:47.232Z,11.50
2018-03-16T17:17:15.434Z,22.80
2018-03-16T17:19:43.610Z,10.03
2018-03-16T17:22:12.554Z,7.10
2018-03-16T17:24:41.490Z,7.10
2018-03-16T17:27:09.680Z,9.30
2018-03-16T17:29:37.931Z,9.00
2018-03-16T17:32:06.111Z,19.70
2018-03-16T17:34:34.289Z,12.47
2018-03-16T17:37:02.458Z,12.40
2018-03-16T17:39:30.633Z,10.30
2018-03-16T17:41:58.802Z,9.63
2018-03-16T17:44:26.986Z,8.47
2018-03-16T17:46:55.169Z,26.00
2018-03-16T17:49:23.352Z,24.77
2018-03-16T17:51:51.528Z,18.60
2018-03-16T17:54:19.700Z,15.20
2018-03-16T17:56:47.876Z,37.67
2018-03-16T17:59:16.826Z,20.53
2018-03-16T18:01:45.011Z,15.50
2018-03-16T18:04:13.207Z,10.90
2018-03-16T18:06:41.419Z,9.90
2018-03-16T18:09:10.374Z,10.60
2018-03-16T18:11:38.599Z,15.80
2018-03-16T18:14:07.551Z,11.97
2018-03-16T18:16:35.722Z,10.63
2018-03-16T18:19:03.900Z,15.33
2018-03-16T18:21:32.101Z,11.40
2018-03-16T18:24:00.293Z,12.20
2018-03-16T18:26:29.308Z,14.10
2018-03-16T18:28:58.134Z,14.10
2018-03-16T18:31:26.309Z,14.17
2018-03-16T18:33:54.478Z,15.20
2018-03-16T18:36:22.661Z,13.43
2018-03-16T18:38:51.626Z,25.90
2018-03-16T18:41:19.818Z,20.20
2018-03-16T18:43:49.350Z,20.57
2018-03-16T18:46:17.533Z,20.20
2018-03-16T18:48:46.486Z,16.17
2018-03-16T18:51:14.687Z,16.83
2018-03-16T18:53:42.881Z,16.67
2018-03-16T18:56:11.812Z,18.80
2018-03-16T18:58:40.005Z,17.97
2018-03-16T19:01:08.175Z,14.13
2018-03-16T19:03:36.367Z,18.83
2018-03-16T19:06:04.558Z,18.80
2018-03-16T19:08:32.723Z,16.53
2018-03-16T19:11:00.905Z,18.37
2018-03-16T19:13:29.087Z,21.07
2018-03-16T19:15:57.267Z,19.70
2018-03-16T19:18:26.219Z,22.70
2018-03-16T19:20:54.405Z,19.53
2018-03-16T19:23:22.573Z,16.17
2018-03-16T19:25:50.748Z,15.93
2018-03-16T19:28:18.935Z,12.50
2018-03-16T19:30:47.145Z,14.40
2018-03-16T19:33:15.406Z,13.53
2018-03-16T19:35:43.535Z,14.00
2018-03-16T19:38:11.711Z,16.23
2018-03-16T19:40:39.881Z,15.93
2018-03-16T19:43:08.051Z,14.93
2018-03-16T19:45:36.238Z,13.80
2018-03-16T19:48:04.403Z,16.73
2018-03-16T19:50:32.590Z,17.83
2018-03-16T19:53:00.767Z,17.37
2018-03-16T19:55:28.934Z,15.80
2018-03-16T19:57:57.129Z,15.50
2018-03-16T20:00:25.315Z,17.83
2018-03-16T20:02:53.500Z,17.10
2018-03-16T20:05:21.676Z,15.20
2018-03-16T20:07:49.847Z,16.47
2018-03-16T20:10:18.015Z,19.03
2018-03-16T20:12:46.216Z,15.80
2018-03-16T20:15:15.162Z,18.53
2018-03-16T20:17:44.340Z,16.07
2018-03-16T20:20:14.162Z,15.23
2018-03-16T20:22:42.369Z,14.20
2018-03-16T20:25:10.545Z,15.00
2018-03-16T20:27:38.726Z,15.50
2018-03-16T20:30:06.902Z,14.83
2018-03-16T20:32:35.193Z,14.87
2018-03-16T20:35:04.141Z,18.20
2018-03-16T20:37:32.311Z,25.73
2018-03-16T20:40:00.585Z,31.87
2018-03-16T20:42:28.823Z,30.73
2018-03-16T20:44:56.991Z,24.47
2018-03-16T20:47:25.926Z,21.77
2018-03-16T20:49:54.122Z,16.67
2018-03-16T20:52:22.300Z,13.83
2018-03-16T20:54:50.475Z,15.63
2018-03-16T20:57:18.663Z,14.20
2018-03-16T20:59:47.020Z,13.37
2018-03-16T21:02:15.228Z,13.90
2018-03-16T21:04:44.217Z,13.97
2018-03-16T21:07:13.142Z,14.50
2018-03-16T21:09:41.313Z,13.53
2018-03-16T21:12:09.485Z,15.30
2018-03-16T21:14:37.658Z,13.80
2018-03-16T21:17:05.867Z,13.97
2018-03-16T21:19:34.038Z,12.33
2018-03-16T21:22:02.204Z,12.23
2018-03-16T21:24:30.400Z,15.20
2018-03-16T21:26:58.696Z,12.20
2018-03-16T21:29:26.862Z,16.80
2018-03-16T21:31:55.039Z,13.63
2018-03-16T21:34:23.233Z,12.97
2018-03-16T21:36:52.178Z,13.50
2018-03-16T21:39:20.367Z,12.53
2018-03-16T21:41:48.561Z,12.10
2018-03-16T21:44:16.736Z,12.53
2018-03-16T21:46:44.918Z,14.37
2018-03-16T21:49:13.085Z,12.90
2018-03-16T21:51:41.256Z,13.00
2018-03-16T21:54:09.418Z,11.27
2018-03-16T21:56:37.645Z,10.97
2018-03-16T21:59:05.815Z,10.00
2018-03-16T22:01:33.988Z,11.63
2018-03-16T22:04:02.956Z,19.00
2018-03-16T22:06:31.947Z,16.23
2018-03-16T22:09:00.896Z,14.20
2018-03-16T22:11:29.070Z,10.90
2018-03-16T22:13:57.238Z,13.17
2018-03-16T22:16:25.403Z,11.57
2018-03-16T22:18:53.575Z,11.00
2018-03-16T22:21:21.735Z,13.77
2018-03-16T22:23:50.676Z,12.37
2018-03-16T22:26:18.860Z,10.80
2018-03-16T22:28:47.032Z,13.50
2018-03-16T22:31:15.216Z,13.37
2018-03-16T22:33:43.384Z,13.47
2018-03-16T22:36:11.551Z,13.50
2018-03-16T22:38:39.746Z,11.37
2018-03-16T22:41:07.907Z,10.03
2018-03-16T22:43:36.074Z,9.27
2018-03-16T22:46:04.375Z,8.80
2018-03-16T22:48:32.555Z,10.40
2018-03-16T22:51:00.732Z,13.80
2018-03-16T22:53:28.902Z,13.63
2018-03-16T22:55:57.831Z,10.60
2018-03-16T22:58:26.022Z,13.03
2018-03-16T23:00:54.182Z,14.27
2018-03-16T23:03:22.357Z,17.77
2018-03-16T23:05:50.531Z,14.90
2018-03-16T23:08:18.695Z,8.83
2018-03-16T23:10:46.860Z,9.60
2018-03-16T23:13:15.794Z,7.30
2018-03-16T23:15:44.065Z,7.83
2018-03-16T23:18:12.232Z,11.20
2018-03-16T23:20:40.414Z,11.50
2018-03-16T23:23:08.586Z,7.10
2018-03-16T23:25:36.765Z,14.30
2018-03-16T23:28:04.959Z,10.50
2018-03-16T23:30:33.139Z,7.77
2018-03-16T23:33:01.326Z,9.40
2018-03-16T23:35:29.494Z,14.63
2018-03-16T23:37:57.737Z,14.90
2018-03-16T23:40:26.135Z,11.43
2018-03-16T23:42:54.305Z,9.53
2018-03-16T23:45:22.478Z,11.70
2018-03-16T23:47:51.448Z,12.57
2018-03-16T23:50:19.615Z,12.57
2018-03-16T23:52:47.788Z,12.37
2018-03-16T23:55:15.959Z,14.83
2018-03-16T23:57:44.157Z,10.63
